Time;durP1;ratioP1;P1;durP2;ratioP2;P2;SDS_P1;SDS_P2;PMS_P1;PMS_P2;Temp;Humidity;BMP_temperature;BMP_pressure;BME280_temperature;BME280_humidity;BME280_pressure;Samples;Min_cycle;Max_cycle;Signal;HPM_P1;HPM_P2
2021/01/29 00:00:59;;;;;;;21.80;10.93;;;;;;;-0.36;55.69;93889.03;5153122;27;20172;-74
2021/01/29 00:03:24;;;;;;;20.17;11.33;;;;;;;-0.45;56.72;93901.28;5153588;27;20200;-73
2021/01/29 00:05:52;;;;;;;18.60;10.37;;;;;;;-0.46;56.35;93889.25;5153956;27;20754;-73
2021/01/29 00:08:18;;;;;;;19.55;9.48;;;;;;;-0.37;55.83;93895.34;5153652;27;20176;-74
2021/01/29 00:10:43;;;;;;;19.23;10.57;;;;;;;-0.34;55.45;93890.28;5153604;27;20625;-73
2021/01/29 00:13:10;;;;;;;19.73;11.17;;;;;;;-0.40;56.37;93898.56;5153201;27;20175;-73
2021/01/29 00:15:36;;;;;;;20.92;9.52;;;;;;;-0.36;55.35;93900.28;5153572;27;20699;-74
2021/01/29 00:18:02;;;;;;;17.53;9.73;;;;;;;-0.35;55.31;93903.69;5153236;27;20314;-73
2021/01/29 00:20:28;;;;;;;19.93;10.17;;;;;;;-0.22;55.21;93902.84;5134144;27;20184;-73
2021/01/29 00:22:53;;;;;;;20.52;10.18;;;;;;;-0.38;56.10;93891.94;5153258;27;20169;-73
2021/01/29 00:25:23;;;;;;;22.63;10.47;;;;;;;-0.76;57.05;93898.63;5153717;27;20176;-74
2021/01/29 00:27:49;;;;;;;22.33;9.82;;;;;;;-0.42;56.15;93898.09;5153075;27;20168;-74
2021/01/29 00:30:16;;;;;;;20.33;10.23;;;;;;;-0.79;57.76;93889.50;5153518;27;20192;-73
2021/01/29 00:32:42;;;;;;;21.50;11.27;;;;;;;-0.86;58.31;93894.38;5153336;27;20172;-74
2021/01/29 00:35:09;;;;;;;20.20;10.53;;;;;;;-0.91;58.45;93897.91;5153160;27;20200;-74
2021/01/29 00:37:35;;;;;;;21.85;9.88;;;;;;;-0.62;57.71;93912.44;5134841;27;20203;-74
2021/01/29 00:40:00;;;;;;;22.70;10.50;;;;;;;-0.55;58.16;93913.59;5153061;27;20184;-74
2021/01/29 00:42:26;;;;;;;17.03;10.50;;;;;;;-0.95;59.41;93898.81;5153461;27;20664;-73
2021/01/29 00:44:51;;;;;;;20.93;10.57;;;;;;;-0.82;57.43;93911.09;5152634;27;20180;-73
2021/01/29 00:47:17;;;;;;;23.37;10.00;;;;;;;-0.58;57.89;93916.03;5153144;27;20632;-73
2021/01/29 00:49:42;;;;;;;18.33;10.07;;;;;;;-0.71;59.02;93919.50;5152852;27;20196;-74
2021/01/29 00:52:08;;;;;;;20.17;10.23;;;;;;;-0.80;59.90;93906.31;5153016;27;20248;-74
2021/01/29 00:54:33;;;;;;;19.97;10.60;;;;;;;-0.71;59.25;93901.91;5152982;27;20211;-74
2021/01/29 00:56:59;;;;;;;17.30;10.53;;;;;;;-0.60;59.81;93913.72;5152754;27;20192;-74
2021/01/29 00:59:24;;;;;;;16.97;9.63;;;;;;;-0.84;61.58;93908.75;5152905;27;20629;-74
2021/01/29 01:01:50;;;;;;;17.10;9.47;;;;;;;-0.52;58.06;93900.94;5152853;27;20230;-74
2021/01/29 01:04:15;;;;;;;21.53;10.63;;;;;;;-0.48;56.88;93912.41;5153042;27;20176;-74
2021/01/29 01:06:41;;;;;;;20.17;10.63;;;;;;;-0.59;57.68;93902.16;5152868;27;20564;-74
2021/01/29 01:09:07;;;;;;;22.98;9.73;;;;;;;-0.37;56.51;93903.22;5151656;27;20168;-74
2021/01/29 01:11:32;;;;;;;21.70;11.43;;;;;;;-0.43;56.92;93901.78;5155120;27;20180;-74
2021/01/29 01:13:59;;;;;;;20.23;10.07;;;;;;;-0.35;56.66;93899.22;5157320;27;20175;-74
2021/01/29 01:16:25;;;;;;;19.90;10.20;;;;;;;-0.20;55.60;93905.94;5157461;27;20176;-74
2021/01/29 01:18:50;;;;;;;20.77;10.27;;;;;;;-0.12;55.78;93904.41;5159547;27;20232;-74
2021/01/29 01:21:16;;;;;;;23.87;10.23;;;;;;;-0.13;55.35;93903.66;5157907;27;20566;-74
2021/01/29 01:23:41;;;;;;;17.67;8.67;;;;;;;-0.19;55.70;93889.09;5156817;27;20184;-74
2021/01/29 01:26:07;;;;;;;12.70;7.97;;;;;;;-0.21;54.99;93869.50;5156914;27;20171;-73
2021/01/29 01:28:32;;;;;;;14.03;8.10;;;;;;;-0.14;55.09;93878.50;5156519;27;20161;-74
2021/01/29 01:30:58;;;;;;;17.37;8.67;;;;;;;-0.17;55.53;93863.38;5156784;27;20719;-74
2021/01/29 01:33:23;;;;;;;16.33;8.93;;;;;;;-0.11;55.85;93853.50;5156559;27;20168;-74
2021/01/29 01:35:49;;;;;;;20.87;8.97;;;;;;;-0.20;56.02;93848.22;5156684;27;20192;-74
2021/01/29 01:38:14;;;;;;;22.63;9.33;;;;;;;-0.09;56.98;93846.88;5156222;27;20307;-74
2021/01/29 01:40:41;;;;;;;14.03;9.00;;;;;;;-0.11;56.75;93837.75;5156496;27;20225;-74
2021/01/29 01:43:06;;;;;;;16.13;9.60;;;;;;;-0.12;55.98;93830.94;5156577;27;20194;-74
2021/01/29 01:45:32;;;;;;;16.20;8.80;;;;;;;-0.09;57.23;93840.84;5137923;27;20184;-74
2021/01/29 01:48:05;;;;;;;15.70;8.67;;;;;;;-0.43;56.75;93831.75;5156422;27;20192;-74
2021/01/29 01:50:33;;;;;;;23.13;8.80;;;;;;;-0.36;56.68;93839.19;5138570;27;20183;-74
2021/01/29 01:52:59;;;;;;;16.50;9.00;;;;;;;-0.19;55.96;93841.13;5138064;27;20176;-74
2021/01/29 01:55:26;;;;;;;13.65;8.00;;;;;;;-0.65;59.02;93832.56;5120729;27;20169;-74
2021/01/29 01:57:53;;;;;;;14.93;8.45;;;;;;;-0.34;57.24;93829.16;5120626;27;20256;-74
2021/01/29 02:00:29;;;;;;;18.20;9.43;;;;;;;-0.65;59.54;93823.91;5137367;27;20195;-75
2021/01/29 02:03:00;;;;;;;15.27;8.55;;;;;;;-0.61;60.08;93836.13;5139236;27;20160;-73
2021/01/29 02:05:32;;;;;;;20.98;8.80;;;;;;;-0.23;57.27;93840.16;5120706;27;20172;-73
2021/01/29 02:07:58;;;;;;;15.05;8.50;;;;;;;-0.24;57.75;93839.38;5156130;27;20251;-74
2021/01/29 02:10:24;;;;;;;16.30;8.60;;;;;;;-0.28;58.58;93823.50;5137326;27;20659;-73
2021/01/29 02:12:50;;;;;;;12.68;7.38;;;;;;;-0.12;56.50;93841.44;5155867;27;20263;-73
2021/01/29 02:15:17;;;;;;;18.97;8.47;;;;;;;-0.66;58.25;93843.34;5155644;27;20180;-73
2021/01/29 02:17:42;;;;;;;16.20;8.48;;;;;;;-0.55;58.53;93832.31;5155795;27;20203;-75
2021/01/29 02:20:36;;;;;;;20.97;8.47;;;;;;;-0.30;58.68;93849.25;5155752;27;20179;-75
2021/01/29 02:23:25;;;;;;;18.15;8.32;;;;;;;0.00;56.30;93825.91;5154682;27;20189;-75
2021/01/29 02:26:45;;;;;;;18.50;8.10;;;;;;;-0.24;57.56;93810.53;5155701;27;20187;-75
2021/01/29 02:29:37;;;;;;;17.63;9.15;;;;;;;-0.41;59.63;93829.59;5091860;28;20186;-75
2021/01/29 02:32:25;;;;;;;14.55;8.00;;;;;;;-0.28;58.11;93817.47;5074235;28;20249;-75
2021/01/29 02:35:29;;;;;;;17.10;8.35;;;;;;;-0.24;58.07;93828.13;5070908;28;20234;-74
2021/01/29 02:38:00;;;;;;;16.52;8.23;;;;;;;-0.05;57.58;93816.31;5002483;28;20345;-73
2021/01/29 02:40:50;;;;;;;21.58;8.32;;;;;;;-0.07;57.70;93822.94;4991648;28;20686;-73
2021/01/29 02:43:21;;;;;;;11.65;8.07;;;;;;;-0.07;57.13;93815.84;4991998;28;20200;-73
2021/01/29 02:46:01;;;;;;;15.95;8.02;;;;;;;-0.01;56.18;93803.34;4991868;28;20209;-74
2021/01/29 02:48:37;;;;;;;16.35;8.15;;;;;;;-0.02;58.06;93812.31;4976547;28;20225;-73
2021/01/29 02:51:19;;;;;;;18.13;8.25;;;;;;;-0.32;59.64;93808.66;4975183;28;20185;-73
2021/01/29 02:53:56;;;;;;;15.02;8.98;;;;;;;-0.20;58.45;93808.09;4992023;28;20181;-74
2021/01/29 02:56:28;;;;;;;17.15;9.40;;;;;;;-0.30;59.49;93812.50;4975733;28;20197;-73
2021/01/29 02:59:08;;;;;;;18.45;9.60;;;;;;;-0.30;59.13;93772.41;4975145;28;20193;-74
2021/01/29 03:01:52;;;;;;;14.20;7.78;;;;;;;0.03;57.06;93796.44;4976366;28;20213;-74
2021/01/29 03:04:52;;;;;;;23.40;9.48;;;;;;;-0.16;58.91;93788.03;5019076;28;20175;-74
2021/01/29 03:07:22;;;;;;;23.05;9.60;;;;;;;-0.40;58.98;93780.53;5046932;28;20256;-75
2021/01/29 03:10:08;;;;;;;18.23;9.45;;;;;;;-0.47;58.44;93782.81;5018165;28;20218;-74
2021/01/29 03:12:39;;;;;;;16.08;9.18;;;;;;;-0.32;58.19;93785.81;5020338;28;20254;-74
2021/01/29 03:15:32;;;;;;;18.35;9.15;;;;;;;-0.37;58.49;93790.44;5118710;27;20272;-74
2021/01/29 03:17:59;;;;;;;18.48;9.55;;;;;;;-0.13;57.36;93792.66;5115504;27;20277;-74
2021/01/29 03:20:42;;;;;;;16.67;8.90;;;;;;;-0.04;56.85;93790.84;5115398;27;20215;-74
2021/01/29 03:23:17;;;;;;;17.58;9.20;;;;;;;0.02;57.22;93770.50;5115626;27;20200;-74
2021/01/29 03:25:45;;;;;;;14.77;8.18;;;;;;;0.14;56.90;93787.19;5115382;27;20164;-74
2021/01/29 03:28:13;;;;;;;20.00;8.60;;;;;;;-0.20;57.61;93779.22;5115494;27;20665;-73
2021/01/29 03:30:40;;;;;;;14.95;9.00;;;;;;;-0.13;56.66;93774.31;5114838;27;20169;-74
2021/01/29 03:33:07;;;;;;;17.27;9.35;;;;;;;-0.16;56.35;93743.44;5115269;27;20258;-74
2021/01/29 03:35:54;;;;;;;22.65;8.75;;;;;;;0.11;56.36;93764.16;5132039;27;20161;-73
2021/01/29 03:38:34;;;;;;;15.57;8.75;;;;;;;0.15;56.19;93761.72;5131491;27;20225;-74
2021/01/29 03:41:27;;;;;;;15.80;9.05;;;;;;;0.12;56.39;93768.34;5114841;27;20669;-74
2021/01/29 03:44:04;;;;;;;23.10;9.95;;;;;;;0.18;57.07;93750.59;5108473;27;20218;-74
2021/01/29 03:46:44;;;;;;;16.48;9.43;;;;;;;-0.04;58.40;93769.88;5132189;27;20200;-74
2021/01/29 03:49:17;;;;;;;20.08;9.00;;;;;;;-0.33;59.86;93754.66;5114687;27;20173;-74
2021/01/29 03:51:51;;;;;;;19.00;9.40;;;;;;;-0.37;60.40;93770.22;5132003;27;20181;-74
2021/01/29 03:54:36;;;;;;;13.88;8.70;;;;;;;-0.20;59.28;93769.50;5132946;27;20183;-74
2021/01/29 03:57:23;;;;;;;14.20;8.98;;;;;;;-0.15;58.94;93774.63;5131656;27;20246;-74
2021/01/29 04:00:03;;;;;;;16.45;8.80;;;;;;;0.04;58.57;93782.22;5132167;27;20181;-74
2021/01/29 04:02:40;;;;;;;16.38;9.40;;;;;;;-0.16;59.24;93777.56;5131750;27;20168;-73
2021/01/29 04:05:11;;;;;;;16.83;9.00;;;;;;;-0.21;60.46;93778.47;5132005;27;20661;-74
2021/01/29 04:07:50;;;;;;;16.80;9.02;;;;;;;-0.04;59.19;93759.38;5131594;27;20165;-74
2021/01/29 04:10:18;;;;;;;17.65;10.10;;;;;;;-0.29;60.98;93769.47;5114556;27;20252;-74
2021/01/29 04:12:55;;;;;;;18.58;8.77;;;;;;;-0.38;61.85;93775.78;5132630;27;20169;-74
2021/01/29 04:15:25;;;;;;;16.27;8.93;;;;;;;-0.06;60.46;93766.75;5114521;27;20165;-74
2021/01/29 04:18:00;;;;;;;16.50;9.35;;;;;;;0.08;60.41;93769.28;5131842;27;20208;-74
2021/01/29 04:20:34;;;;;;;11.55;8.00;;;;;;;0.22;59.76;93772.53;5131480;27;20225;-74
2021/01/29 04:23:00;;;;;;;17.52;8.70;;;;;;;-0.04;60.71;93772.50;5114406;27;20172;-74
2021/01/29 04:25:29;;;;;;;16.65;9.50;;;;;;;0.14;60.95;93775.91;5114485;27;20213;-74
2021/01/29 04:27:59;;;;;;;13.82;8.18;;;;;;;-0.19;61.74;93773.66;5114388;27;20214;-74
2021/01/29 04:30:29;;;;;;;13.52;8.35;;;;;;;0.14;60.56;93794.28;5114364;27;20649;-74
2021/01/29 04:33:10;;;;;;;13.32;7.65;;;;;;;-0.16;62.05;93757.34;5114438;27;20652;-74
2021/01/29 04:35:36;;;;;;;16.67;8.05;;;;;;;-0.16;61.25;93764.44;5113948;27;20551;-74
2021/01/29 04:38:08;;;;;;;12.93;7.47;;;;;;;-0.12;62.56;93741.72;5108433;28;20701;-74
2021/01/29 04:41:07;;;;;;;15.50;8.35;;;;;;;0.18;60.35;93767.13;5111814;28;20181;-74
2021/01/29 04:44:00;;;;;;;13.73;8.35;;;;;;;0.14;60.98;93762.78;5110987;28;20176;-74
2021/01/29 04:46:25;;;;;;;12.48;7.63;;;;;;;-0.07;62.30;93781.72;5095480;28;20181;-73
2021/01/29 04:48:55;;;;;;;14.70;7.47;;;;;;;-0.11;62.55;93783.44;5112651;28;20688;-73
2021/01/29 04:51:45;;;;;;;14.73;7.78;;;;;;;0.07;62.46;93765.09;5093922;28;20198;-74
2021/01/29 04:54:37;;;;;;;12.32;6.95;;;;;;;0.23;60.28;93780.13;5093673;28;20189;-74
2021/01/29 04:57:40;;;;;;;21.38;9.23;;;;;;;0.08;61.10;93791.03;5088046;28;20240;-73
2021/01/29 05:00:11;;;;;;;15.63;8.77;;;;;;;0.31;59.50;93783.06;5111757;28;20174;-74
2021/01/29 05:03:08;;;;;;;17.55;8.93;;;;;;;0.38;58.92;93773.63;5111574;28;20177;-73
2021/01/29 05:05:55;;;;;;;16.75;8.50;;;;;;;0.45;58.50;93770.53;5110449;28;20264;-74
2021/01/29 05:08:37;;;;;;;14.65;8.15;;;;;;;0.20;58.54;93764.19;5111789;28;20184;-75
2021/01/29 05:11:02;;;;;;;13.80;7.35;;;;;;;0.32;57.72;93759.09;5110448;28;20315;-74
2021/01/29 05:13:52;;;;;;;15.10;8.63;;;;;;;0.31;58.07;93767.28;5111416;28;20649;-75
2021/01/29 05:16:23;;;;;;;15.05;7.90;;;;;;;0.33;57.80;93773.78;5111266;28;20190;-74
2021/01/29 05:19:07;;;;;;;14.45;8.13;;;;;;;0.33;57.77;93763.28;5093477;28;20220;-74
2021/01/29 05:21:47;;;;;;;13.35;8.02;;;;;;;0.43;58.15;93762.97;5111708;28;20173;-75
2021/01/29 05:24:41;;;;;;;15.05;8.35;;;;;;;0.08;59.80;93788.41;5093490;28;20185;-74
2021/01/29 05:27:33;;;;;;;15.02;9.05;;;;;;;0.30;58.39;93766.53;5111546;28;20174;-74
2021/01/29 05:30:09;;;;;;;16.55;8.70;;;;;;;0.20;58.35;93791.22;5111454;28;20184;-74
2021/01/29 05:33:05;;;;;;;14.63;8.40;;;;;;;0.32;58.31;93793.25;5109909;28;20548;-75
2021/01/29 05:35:49;;;;;;;11.40;7.57;;;;;;;0.10;59.26;93795.97;5111481;28;20181;-74
2021/01/29 05:38:15;;;;;;;20.45;9.50;;;;;;;0.31;58.66;93788.31;5118674;28;20229;-75
2021/01/29 05:41:09;;;;;;;16.10;9.03;;;;;;;0.44;58.02;93788.16;5113972;28;20231;-75
2021/01/29 05:44:04;;;;;;;17.83;8.10;;;;;;;0.44;57.83;93803.13;5113635;28;20177;-74
2021/01/29 05:46:55;;;;;;;20.05;9.40;;;;;;;0.34;58.72;93779.78;5130507;28;20191;-75
2021/01/29 05:49:25;;;;;;;14.75;9.02;;;;;;;0.34;58.79;93792.94;5112678;28;20185;-74
2021/01/29 05:51:57;;;;;;;14.95;8.65;;;;;;;0.37;59.63;93784.44;5113607;28;20208;-74
2021/01/29 05:54:30;;;;;;;16.50;8.20;;;;;;;0.45;59.41;93808.09;5113396;28;20161;-74
2021/01/29 05:57:23;;;;;;;17.15;8.95;;;;;;;0.51;59.62;93798.22;5114955;27;20556;-74
2021/01/29 05:59:48;;;;;;;14.95;9.05;;;;;;;0.44;59.64;93805.78;5135134;27;20168;-75
2021/01/29 06:02:36;;;;;;;13.17;8.50;;;;;;;0.37;59.72;93787.06;5135411;27;20172;-74
2021/01/29 06:05:34;;;;;;;16.63;8.48;;;;;;;0.49;59.84;93826.63;5117280;27;20226;-74
2021/01/29 06:08:43;;;;;;;14.15;7.15;;;;;;;0.51;59.60;93822.63;5071684;28;20227;-75
2021/01/29 06:11:30;;;;;;;14.15;7.68;;;;;;;0.51;59.47;93819.25;5011993;28;20268;-73
2021/01/29 06:14:02;;;;;;;16.80;7.50;;;;;;;0.55;59.83;93814.13;5012575;28;20185;-74
2021/01/29 06:17:04;;;;;;;16.25;8.32;;;;;;;0.21;61.59;93813.75;5011809;28;20169;-74
2021/01/29 06:19:51;;;;;;;13.50;7.93;;;;;;;0.45;60.12;93813.34;5011988;28;20197;-74
2021/01/29 06:22:44;;;;;;;13.38;8.50;;;;;;;0.50;59.56;93807.16;5012052;28;20677;-74
2021/01/29 06:25:31;;;;;;;13.82;8.00;;;;;;;0.58;59.54;93806.41;5012052;28;20223;-74
2021/01/29 06:27:57;;;;;;;13.90;7.97;;;;;;;0.68;58.95;93816.63;5011912;28;20380;-74
2021/01/29 06:30:36;;;;;;;14.10;9.10;;;;;;;0.48;60.87;93825.09;5012017;28;20760;-74
2021/01/29 06:33:30;;;;;;;14.27;8.20;;;;;;;0.63;61.25;93821.25;5008426;28;20185;-74
2021/01/29 06:36:21;;;;;;;18.77;8.68;;;;;;;0.56;60.70;93834.06;4992341;28;20362;-74
2021/01/29 06:39:04;;;;;;;18.88;8.05;;;;;;;0.70;60.34;93813.69;5005131;28;20228;-74
2021/01/29 06:41:48;;;;;;;11.77;7.38;;;;;;;0.83;59.37;93833.00;5032959;28;20293;-73
2021/01/29 06:44:27;;;;;;;16.65;9.52;;;;;;;0.57;61.33;93817.25;5099270;27;20620;-75
2021/01/29 06:47:21;;;;;;;19.02;9.07;;;;;;;0.70;59.85;93845.22;5133570;27;20176;-75
2021/01/29 06:50:00;;;;;;;16.10;8.15;;;;;;;0.81;60.29;93825.44;5134272;27;20161;-73
2021/01/29 06:52:29;;;;;;;14.32;7.25;;;;;;;0.71;59.73;93849.38;5133202;27;20181;-73
2021/01/29 06:55:30;;;;;;;15.13;7.97;;;;;;;0.74;60.37;93822.50;5150356;27;20218;-74
2021/01/29 06:58:07;;;;;;;14.75;8.25;;;;;;;1.05;59.06;93843.38;5148481;27;20771;-74
2021/01/29 07:00:50;;;;;;;15.48;8.57;;;;;;;0.75;60.79;93853.72;5133111;27;20177;-74
2021/01/29 07:03:53;;;;;;;20.17;8.85;;;;;;;1.16;59.54;93835.94;5148760;27;20249;-73
2021/01/29 07:06:32;;;;;;;15.82;8.07;;;;;;;1.26;58.88;93849.53;5133858;27;20267;-74
2021/01/29 07:09:19;;;;;;;16.17;8.65;;;;;;;0.98;60.02;93838.56;5133374;27;20176;-74
2021/01/29 07:12:02;;;;;;;16.30;8.52;;;;;;;1.32;59.41;93847.53;5133870;27;20614;-74
2021/01/29 07:15:01;;;;;;;18.88;8.85;;;;;;;1.13;60.55;93853.13;5133587;27;20180;-74
2021/01/29 07:17:49;;;;;;;16.98;10.02;;;;;;;1.25;59.56;93844.59;5132449;27;20212;-75
2021/01/29 07:20:25;;;;;;;17.15;9.95;;;;;;;1.33;59.40;93838.53;5117148;27;20641;-75
2021/01/29 07:23:19;;;;;;;16.75;9.85;;;;;;;1.13;61.46;93826.81;5149604;27;20249;-75
2021/01/29 07:26:02;;;;;;;13.65;8.90;;;;;;;1.40;59.61;93838.06;5147250;27;20706;-74
2021/01/29 07:28:47;;;;;;;13.45;8.63;;;;;;;1.62;59.25;93851.03;5121247;27;20735;-74
2021/01/29 07:31:36;;;;;;;15.30;8.38;;;;;;;1.59;59.64;93860.31;5118753;27;20180;-74
2021/01/29 07:34:27;;;;;;;14.48;8.15;;;;;;;1.73;59.25;93856.72;5111690;28;20556;-74
2021/01/29 07:37:14;;;;;;;14.05;8.48;;;;;;;1.62;60.99;93858.13;5115923;27;20244;-74
2021/01/29 07:40:07;;;;;;;11.07;7.45;;;;;;;1.53;61.71;93851.06;5131920;27;20285;-74
2021/01/29 07:43:04;;;;;;;16.13;7.78;;;;;;;1.52;61.95;93846.88;5133269;27;20173;-75
2021/01/29 07:45:37;;;;;;;12.50;7.43;;;;;;;1.53;61.35;93831.88;5129981;27;20196;-75
2021/01/29 07:48:26;;;;;;;13.57;7.75;;;;;;;1.75;60.33;93854.56;5133068;27;20173;-75
2021/01/29 07:51:19;;;;;;;16.20;8.48;;;;;;;1.64;60.25;93845.47;5132120;27;20173;-75
2021/01/29 07:53:50;;;;;;;16.95;9.45;;;;;;;1.81;59.73;93830.38;5090167;28;20186;-75
2021/01/29 07:56:44;;;;;;;21.73;10.77;;;;;;;1.89;59.82;93843.81;5090088;28;20340;-75
2021/01/29 07:59:52;;;;;;;16.10;9.48;;;;;;;1.88;59.14;93829.13;5089836;28;20712;-75
2021/01/29 08:02:29;;;;;;;14.88;8.55;;;;;;;1.98;58.46;93834.03;4993563;28;20718;-75
2021/01/29 08:05:21;;;;;;;19.60;8.95;;;;;;;1.98;59.58;93818.25;5000007;28;20217;-75
2021/01/29 08:07:48;;;;;;;12.38;7.90;;;;;;;2.11;58.69;93823.28;5006255;28;20216;-75
2021/01/29 08:10:28;;;;;;;17.77;9.23;;;;;;;2.05;59.29;93810.63;4996773;28;20188;-74
2021/01/29 08:13:05;;;;;;;17.55;9.75;;;;;;;2.08;58.92;93834.47;5011454;28;20197;-74
2021/01/29 08:16:30;;;;;;;15.93;9.25;;;;;;;1.90;59.90;93850.63;5009723;28;20197;-75
2021/01/29 08:19:16;;;;;;;19.88;9.25;;;;;;;1.95;60.32;93830.16;4947567;29;20222;-74
2021/01/29 08:21:59;;;;;;;17.52;8.75;;;;;;;1.98;61.32;93839.31;4939445;29;20183;-75
2021/01/29 08:24:47;;;;;;;18.27;9.48;;;;;;;1.82;61.51;93863.50;4932312;29;20209;-74
2021/01/29 08:27:55;;;;;;;17.88;9.07;;;;;;;1.99;63.23;93854.00;4932380;29;20195;-73
2021/01/29 08:30:42;;;;;;;18.55;8.57;;;;;;;2.04;63.49;93872.28;4905972;29;20223;-73
2021/01/29 08:33:45;;;;;;;14.30;8.55;;;;;;;2.16;61.34;93855.81;4935440;29;20198;-74
2021/01/29 08:36:14;;;;;;;14.27;7.82;;;;;;;2.29;60.40;93867.97;4932115;29;20195;-74
2021/01/29 08:39:05;;;;;;;10.98;7.43;;;;;;;2.41;59.91;93872.56;4921290;29;20226;-74
2021/01/29 08:41:55;;;;;;;15.45;7.93;;;;;;;2.33;60.56;93871.53;4931661;29;20588;-74
2021/01/29 08:44:48;;;;;;;11.95;7.45;;;;;;;2.51;60.41;93888.03;4932037;29;20220;-73
2021/01/29 08:47:35;;;;;;;19.38;8.13;;;;;;;2.50;59.90;93875.94;4932025;29;20210;-75
2021/01/29 08:50:19;;;;;;;26.73;7.38;;;;;;;2.44;61.11;93861.41;4990761;28;20717;-74
2021/01/29 08:53:16;;;;;;;21.38;8.00;;;;;;;2.63;60.46;93873.06;5009347;28;20176;-73
2021/01/29 08:55:59;;;;;;;16.38;8.93;;;;;;;2.55;60.53;93887.06;4995719;28;20177;-74
2021/01/29 08:58:49;;;;;;;15.77;7.97;;;;;;;2.68;60.24;93872.13;4992645;28;20228;-76
2021/01/29 09:01:21;;;;;;;14.90;8.27;;;;;;;2.52;60.18;93868.50;5009396;28;20231;-74
2021/01/29 09:03:57;;;;;;;22.27;9.20;;;;;;;2.54;60.37;93867.09;5006376;28;20185;-74
2021/01/29 09:06:25;;;;;;;18.50;9.52;;;;;;;2.65;60.43;93870.13;5093572;28;20177;-74
2021/01/29 09:09:01;;;;;;;22.10;11.90;;;;;;;2.59;60.74;93892.50;5110312;28;20598;-74
2021/01/29 09:11:49;;;;;;;18.23;9.93;;;;;;;2.81;60.13;93888.81;5093507;28;20166;-74
2021/01/29 09:14:35;;;;;;;18.27;9.55;;;;;;;2.90;59.75;93890.28;5093554;28;20240;-73
2021/01/29 09:17:04;;;;;;;18.42;9.63;;;;;;;2.86;59.26;93875.41;5092910;28;20637;-73
2021/01/29 09:19:29;;;;;;;17.42;9.15;;;;;;;2.92;60.23;93868.88;5093113;28;20178;-73
2021/01/29 09:22:13;;;;;;;21.50;9.63;;;;;;;2.95;59.59;93859.53;5093190;28;20172;-73
2021/01/29 09:24:51;;;;;;;15.95;9.68;;;;;;;2.97;59.52;93873.16;5111856;28;20230;-73
2021/01/29 09:27:23;;;;;;;17.40;9.77;;;;;;;2.75;60.02;93856.59;5111293;28;20268;-73
2021/01/29 09:29:55;;;;;;;20.30;10.00;;;;;;;2.70;60.77;93851.50;5093183;28;20189;-73
2021/01/29 09:32:50;;;;;;;18.98;9.63;;;;;;;2.98;59.85;93848.38;5095154;28;20646;-74
2021/01/29 09:35:29;;;;;;;18.67;9.85;;;;;;;2.87;59.75;93861.16;5115258;28;20182;-74
2021/01/29 09:37:55;;;;;;;17.70;9.32;;;;;;;3.01;60.00;93853.75;5096987;28;20220;-74
2021/01/29 09:40:25;;;;;;;19.53;8.63;;;;;;;3.08;60.14;93840.03;5096751;28;20216;-74
2021/01/29 09:43:17;;;;;;;17.92;10.10;;;;;;;2.99;60.06;93842.75;5097252;28;20174;-74
2021/01/29 09:45:42;;;;;;;19.92;10.50;;;;;;;3.09;59.99;93833.69;5096813;28;20170;-74
2021/01/29 09:48:11;;;;;;;16.80;10.30;;;;;;;3.15;59.90;93849.00;5097172;28;20170;-74
2021/01/29 09:50:38;;;;;;;19.70;10.70;;;;;;;3.26;59.40;93833.56;5096836;28;20173;-74
2021/01/29 09:53:06;;;;;;;21.85;10.13;;;;;;;3.26;59.06;93848.59;5096975;28;20633;-74
2021/01/29 09:55:43;;;;;;;22.63;9.82;;;;;;;3.08;60.19;93829.50;5114835;28;20170;-74
2021/01/29 09:58:19;;;;;;;24.02;11.35;;;;;;;3.14;60.89;93842.19;5096643;28;20209;-74
2021/01/29 10:00:54;;;;;;;20.73;10.52;;;;;;;3.16;62.55;93833.94;5113621;28;20169;-74
2021/01/29 10:03:27;;;;;;;32.35;11.50;;;;;;;3.28;60.59;93820.78;5112418;28;20257;-74
2021/01/29 10:05:58;;;;;;;23.55;10.77;;;;;;;3.34;60.72;93810.81;5096614;28;20170;-74
2021/01/29 10:08:33;;;;;;;21.38;10.60;;;;;;;3.23;60.55;93805.16;5079910;28;20186;-74
2021/01/29 10:11:20;;;;;;;19.02;9.65;;;;;;;3.32;61.43;93821.69;5096677;28;20283;-74
2021/01/29 10:14:15;;;;;;;21.42;10.48;;;;;;;3.51;61.34;93839.69;5114381;28;20308;-75
2021/01/29 10:16:55;;;;;;;22.23;11.30;;;;;;;3.58;61.42;93828.59;5113478;28;20251;-74
2021/01/29 10:19:31;;;;;;;18.70;10.77;;;;;;;3.75;60.00;93825.75;5096394;28;20184;-75
2021/01/29 10:21:57;;;;;;;25.33;11.52;;;;;;;3.75;60.06;93806.50;5113348;28;20586;-75
2021/01/29 10:24:42;;;;;;;21.47;10.77;;;;;;;3.83;59.40;93826.78;5114313;28;20257;-75
2021/01/29 10:27:14;;;;;;;20.15;10.68;;;;;;;3.99;60.09;93811.84;5113125;28;20363;-73
2021/01/29 10:29:45;;;;;;;24.02;11.13;;;;;;;4.08;58.74;93815.13;5096145;28;20249;-75
2021/01/29 10:32:22;;;;;;;26.90;12.98;;;;;;;4.32;58.01;93814.38;5095859;28;20197;-73
2021/01/29 10:35:04;;;;;;;19.25;10.15;;;;;;;4.61;56.87;93808.06;5096094;28;20649;-74
2021/01/29 10:37:46;;;;;;;28.90;12.80;;;;;;;4.58;57.65;93819.31;5112851;28;20193;-74
2021/01/29 10:40:29;;;;;;;22.33;11.95;;;;;;;4.66;57.72;93804.44;5114688;27;20192;-74
2021/01/29 10:42:56;;;;;;;23.20;12.02;;;;;;;4.85;56.29;93803.84;5112796;28;20181;-74
2021/01/29 10:45:57;;;;;;;24.02;11.52;;;;;;;4.95;55.94;93812.09;5112403;28;20173;-74
2021/01/29 10:49:05;;;;;;;19.52;10.68;;;;;;;5.09;56.48;93803.00;5091583;28;20620;-75
2021/01/29 10:51:37;;;;;;;20.50;10.35;;;;;;;5.32;55.88;93804.00;5074545;28;20611;-74
2021/01/29 10:54:03;;;;;;;26.98;11.70;;;;;;;5.35;55.70;93787.47;5074736;28;20178;-75
2021/01/29 10:56:50;;;;;;;19.83;10.37;;;;;;;5.43;55.30;93781.22;5058037;28;20189;-75
2021/01/29 10:59:18;;;;;;;24.23;11.38;;;;;;;5.68;54.10;93775.81;5075441;28;20244;-75
2021/01/29 11:02:06;;;;;;;21.13;10.97;;;;;;;5.47;54.11;93768.84;5091369;28;20178;-75
2021/01/29 11:04:35;;;;;;;19.53;10.70;;;;;;;5.45;55.25;93760.50;5076788;28;20442;-73
2021/01/29 11:07:04;;;;;;;22.67;11.00;;;;;;;5.70;54.14;93760.34;5058311;28;20413;-77
2021/01/29 11:09:37;;;;;;;21.13;11.73;;;;;;;5.85;54.87;93751.66;5058074;28;20460;-76
2021/01/29 11:12:09;;;;;;;18.65;11.48;;;;;;;5.82;54.36;93752.31;5074122;28;20460;-74
2021/01/29 11:14:41;;;;;;;17.77;10.87;;;;;;;5.96;54.27;93738.69;5091008;28;20261;-74
2021/01/29 11:17:09;;;;;;;22.50;11.23;;;;;;;6.01;53.36;93749.78;5073485;28;20417;-73
2021/01/29 11:19:40;;;;;;;22.47;11.57;;;;;;;5.86;53.56;93731.22;5090772;28;21028;-74
2021/01/29 11:22:07;;;;;;;21.90;11.87;;;;;;;5.70;53.95;93742.56;5058077;28;20978;-75
2021/01/29 11:24:42;;;;;;;22.67;11.40;;;;;;;5.44;55.13;93748.34;5089504;28;20420;-75
2021/01/29 11:27:14;;;;;;;21.50;11.60;;;;;;;5.55;54.33;93746.75;5112638;28;20423;-76
2021/01/29 11:29:55;;;;;;;24.80;12.30;;;;;;;5.65;53.84;93739.41;5112219;28;20423;-75
2021/01/29 11:32:32;;;;;;;18.60;11.93;;;;;;;5.67;55.51;93721.28;5113126;27;20419;-75
2021/01/29 11:35:08;;;;;;;22.10;12.43;;;;;;;5.82;55.85;93721.28;5112059;28;20476;-75
2021/01/29 11:38:08;;;;;;;22.23;12.13;;;;;;;5.60;56.88;93694.63;5111693;28;20512;-75
2021/01/29 11:40:58;;;;;;;21.23;10.97;;;;;;;5.96;55.59;93694.41;5113499;28;20510;-75
2021/01/29 11:43:35;;;;;;;24.63;10.47;;;;;;;5.95;55.40;93684.91;5111714;28;20430;-76
2021/01/29 11:46:22;;;;;;;23.20;12.40;;;;;;;5.92;56.50;93676.88;5111761;28;20491;-75
2021/01/29 11:48:59;;;;;;;22.43;10.37;;;;;;;5.88;55.97;93663.50;5112829;28;20428;-75
2021/01/29 11:51:51;;;;;;;15.00;9.10;;;;;;;5.95;55.50;93662.94;5095567;28;20467;-74
2021/01/29 11:54:26;;;;;;;16.03;8.90;;;;;;;5.68;55.04;93611.63;5089858;28;20444;-75
2021/01/29 11:57:01;;;;;;;20.77;12.33;;;;;;;5.91;55.91;93659.44;5089889;28;20446;-74
2021/01/29 11:59:29;;;;;;;28.93;12.63;;;;;;;5.93;56.13;93646.63;5072965;28;20499;-74
2021/01/29 12:02:13;;;;;;;22.90;12.73;;;;;;;5.95;56.39;93637.22;5089882;28;20922;-73
2021/01/29 12:04:44;;;;;;;23.03;11.77;;;;;;;5.83;56.74;93639.94;5072755;28;20432;-74
2021/01/29 12:07:15;;;;;;;20.40;11.73;;;;;;;5.67;57.99;93634.69;5072920;28;20565;-74
2021/01/29 12:09:46;;;;;;;27.87;12.43;;;;;;;5.53;57.51;93629.81;5089747;28;20475;-74
2021/01/29 12:12:16;;;;;;;31.97;12.97;;;;;;;5.48;59.83;93630.06;5089661;28;20923;-75
2021/01/29 12:15:08;;;;;;;26.03;12.90;;;;;;;5.54;58.57;93631.34;5089573;28;20471;-76
2021/01/29 12:17:34;;;;;;;23.43;12.10;;;;;;;5.57;58.37;93611.38;5089558;28;20472;-76